Time;durP1;ratioP1;P1;durP2;ratioP2;P2;SDS_P1;SDS_P2;PMS_P1;PMS_P2;Temp;Humidity;BMP_temperature;BMP_pressure;BME280_temperature;BME280_humidity;BME280_pressure;Samples;Min_cycle;Max_cycle;Signal;HPM_P1;HPM_P2
2021/06/16 00:01:39;;;;;;;10.25;3.22;;;;;;;24.70;40.60;99088.59;5082899;27;20076;-81
2021/06/16 00:04:05;;;;;;;10.90;3.67;;;;;;;24.57;40.77;99077.75;5099502;27;20533;-80
2021/06/16 00:06:33;;;;;;;10.80;3.60;;;;;;;24.45;40.88;99070.25;5100257;27;20532;-80
2021/06/16 00:08:58;;;;;;;12.43;3.47;;;;;;;24.35;41.98;99069.03;5049865;27;20047;-81
2021/06/16 00:11:24;;;;;;;6.75;3.85;;;;;;;24.25;41.82;99064.03;5081890;27;20083;-80
2021/06/16 00:13:50;;;;;;;12.73;3.92;;;;;;;24.26;41.95;99070.31;5082033;27;20039;-81
2021/06/16 00:16:18;;;;;;;13.35;3.30;;;;;;;24.21;42.47;99062.78;5098960;27;20047;-81
2021/06/16 00:18:44;;;;;;;12.48;3.83;;;;;;;24.18;42.94;99063.22;5082270;27;20054;-79
2021/06/16 00:21:14;;;;;;;10.02;3.45;;;;;;;24.08;42.44;99054.66;5082130;28;20046;-79
2021/06/16 00:23:40;;;;;;;9.40;3.75;;;;;;;23.98;43.42;99057.84;5134669;27;20043;-79
2021/06/16 00:26:06;;;;;;;11.85;3.83;;;;;;;23.94;43.64;99062.06;5082757;27;20050;-81
2021/06/16 00:28:32;;;;;;;14.15;4.13;;;;;;;23.80;43.97;99058.53;5098904;27;20137;-81
2021/06/16 00:30:58;;;;;;;23.50;4.70;;;;;;;23.77;44.18;99061.72;5095055;28;20100;-80
2021/06/16 00:33:24;;;;;;;20.35;4.50;;;;;;;23.80;44.35;99066.72;5078364;28;20048;-80
2021/06/16 00:35:50;;;;;;;20.52;5.50;;;;;;;23.82;44.81;99070.09;5062579;28;20071;-79
2021/06/16 00:38:16;;;;;;;26.13;5.50;;;;;;;23.81;44.57;99064.81;5078259;28;20093;-78
2021/06/16 00:40:42;;;;;;;20.15;5.57;;;;;;;23.83;44.90;99060.00;5095097;28;20131;-80
2021/06/16 00:43:07;;;;;;;31.33;6.22;;;;;;;23.86;45.22;99065.88;5095459;28;20558;-82
2021/06/16 00:45:33;;;;;;;37.28;6.00;;;;;;;23.82;44.61;99059.16;5112664;28;20130;-81
2021/06/16 00:47:59;;;;;;;25.20;5.57;;;;;;;23.84;44.20;99061.69;5078494;28;20039;-80
2021/06/16 00:50:30;;;;;;;28.98;5.00;;;;;;;23.92;44.11;99070.47;5061520;28;20035;-78
2021/06/16 00:52:56;;;;;;;31.83;6.60;;;;;;;23.89;43.81;99054.53;5062475;28;20047;-79
2021/06/16 00:55:22;;;;;;;24.73;5.97;;;;;;;23.95;43.67;99056.38;5095296;28;20042;-79
2021/06/16 00:57:48;;;;;;;31.30;6.07;;;;;;;23.96;43.56;99071.72;5061843;28;20047;-79
2021/06/16 01:00:18;;;;;;;24.08;5.85;;;;;;;23.95;43.85;99058.28;5094501;28;20122;-79
2021/06/16 01:02:57;;;;;;;35.25;6.28;;;;;;;24.06;43.56;99070.41;5081254;28;20039;-79
2021/06/16 01:05:27;;;;;;;25.60;6.00;;;;;;;24.06;42.99;99076.72;5066820;28;20410;-80
2021/06/16 01:07:58;;;;;;;18.83;5.43;;;;;;;24.05;43.24;99074.22;5099147;28;20406;-79
2021/06/16 01:10:24;;;;;;;22.88;5.93;;;;;;;24.05;43.16;99085.97;5049031;28;20394;-79
2021/06/16 01:13:17;;;;;;;20.80;5.63;;;;;;;24.03;42.79;99103.59;5082273;28;20043;-78
2021/06/16 01:16:11;;;;;;;26.73;5.18;;;;;;;24.07;43.08;99107.56;5066406;28;20101;-79
2021/06/16 01:18:48;;;;;;;28.98;5.00;;;;;;;24.01;42.89;99083.88;5100796;28;20574;-79
2021/06/16 01:21:14;;;;;;;11.68;5.00;;;;;;;24.06;42.85;99095.00;5065345;28;20042;-78
2021/06/16 01:24:00;;;;;;;15.77;4.70;;;;;;;24.14;42.52;99132.97;5081962;28;20044;-81
2021/06/16 01:26:30;;;;;;;13.38;4.18;;;;;;;24.16;42.60;99114.50;5100587;28;20429;-79
2021/06/16 01:29:12;;;;;;;8.75;4.30;;;;;;;24.29;42.18;99125.34;5081723;28;20036;-81
2021/06/16 01:31:39;;;;;;;12.80;3.97;;;;;;;24.38;41.90;99115.03;5066600;28;20055;-79
2021/06/16 01:34:05;;;;;;;15.57;3.60;;;;;;;24.46;41.61;99109.34;5081845;28;20047;-81
2021/06/16 01:36:31;;;;;;;10.65;4.18;;;;;;;24.52;41.55;99111.19;5098388;28;20040;-80
2021/06/16 01:38:57;;;;;;;11.02;4.25;;;;;;;24.62;41.01;99113.44;5081448;28;20075;-80
2021/06/16 01:41:23;;;;;;;9.35;4.45;;;;;;;24.64;40.88;99084.03;5081343;28;20401;-83
2021/06/16 01:43:49;;;;;;;11.32;3.95;;;;;;;24.81;40.79;99109.75;5081427;28;20173;-79
2021/06/16 01:46:15;;;;;;;13.93;4.05;;;;;;;24.89;40.71;99125.03;5081552;28;20130;-79
2021/06/16 01:48:41;;;;;;;7.90;3.90;;;;;;;24.90;40.59;99113.06;5098355;28;20126;-81
2021/06/16 01:51:08;;;;;;;17.63;3.85;;;;;;;24.96;40.21;99117.66;5081514;28;20096;-79
2021/06/16 01:53:38;;;;;;;15.65;4.22;;;;;;;25.13;40.18;99148.06;5064553;28;20040;-78
2021/06/16 01:56:04;;;;;;;16.98;3.28;;;;;;;25.20;39.46;99146.13;5098346;28;20055;-81
2021/06/16 01:58:30;;;;;;;13.05;4.00;;;;;;;25.24;39.28;99149.22;5064611;28;20075;-82
2021/06/16 02:00:56;;;;;;;8.77;3.20;;;;;;;25.29;38.63;99157.63;5081626;28;20442;-82
2021/06/16 02:03:22;;;;;;;11.73;3.40;;;;;;;25.30;37.99;99159.28;5081422;28;20052;-79
2021/06/16 02:05:48;;;;;;;9.82;3.83;;;;;;;25.26;38.13;99137.00;5098291;28;20051;-79
2021/06/16 02:08:18;;;;;;;9.35;3.67;;;;;;;25.34;37.88;99117.56;5081544;28;20043;-81
2021/06/16 02:10:49;;;;;;;13.57;3.63;;;;;;;25.40;37.87;99132.28;5081797;28;20122;-81
2021/06/16 02:13:27;;;;;;;6.50;3.40;;;;;;;25.55;37.76;99145.63;5064025;28;20050;-78
2021/06/16 02:16:02;;;;;;;10.43;3.47;;;;;;;25.62;37.27;99140.91;5099477;28;20398;-79
2021/06/16 02:18:43;;;;;;;8.32;3.63;;;;;;;25.63;36.78;99127.00;5098300;28;20046;-78
2021/06/16 02:21:10;;;;;;;5.53;3.13;;;;;;;25.72;37.01;99132.16;5064486;28;20131;-78
2021/06/16 02:23:36;;;;;;;7.47;3.95;;;;;;;25.74;36.86;99116.38;5080752;28;20043;-78
2021/06/16 02:26:02;;;;;;;8.43;3.45;;;;;;;25.78;36.92;99118.44;5097440;28;20163;-79
2021/06/16 02:28:28;;;;;;;12.35;3.72;;;;;;;25.77;37.00;99130.44;5114320;28;20100;-79
2021/06/16 02:30:55;;;;;;;10.98;3.60;;;;;;;25.85;36.72;99124.69;5080439;28;20082;-79
2021/06/16 02:33:21;;;;;;;12.75;3.80;;;;;;;25.95;36.58;99134.28;5064090;28;20071;-79
2021/06/16 02:35:47;;;;;;;5.88;3.65;;;;;;;26.01;36.72;99111.47;5063855;28;20513;-80
2021/06/16 02:38:16;;;;;;;15.05;3.90;;;;;;;26.15;36.42;99118.47;5097279;28;20047;-79
2021/06/16 02:40:42;;;;;;;16.98;3.88;;;;;;;26.23;36.48;99112.66;5097555;28;20448;-80
2021/06/16 02:43:08;;;;;;;13.20;3.78;;;;;;;26.38;36.25;99113.09;5097221;28;20039;-81
2021/06/16 02:45:37;;;;;;;15.05;3.88;;;;;;;26.52;36.02;99105.56;5115137;28;20172;-80
2021/06/16 02:48:05;;;;;;;12.68;4.28;;;;;;;26.64;35.97;99116.59;5097096;28;20043;-81
2021/06/16 02:50:31;;;;;;;5.90;3.25;;;;;;;26.78;35.77;99111.72;5096896;28;20054;-80
2021/06/16 02:53:02;;;;;;;11.07;3.55;;;;;;;26.92;35.66;99115.13;5080750;28;20039;-80
2021/06/16 02:55:28;;;;;;;8.27;4.18;;;;;;;27.08;35.28;99108.94;5080593;28;20047;-79
2021/06/16 02:57:54;;;;;;;9.13;3.65;;;;;;;27.24;35.44;99111.03;5080274;28;20465;-79
2021/06/16 03:00:20;;;;;;;13.38;3.95;;;;;;;27.47;35.35;99103.91;5046444;28;20070;-79
2021/06/16 03:02:47;;;;;;;12.52;4.25;;;;;;;27.54;35.12;99088.16;5113802;28;20494;-80
2021/06/16 03:05:27;;;;;;;13.00;3.58;;;;;;;27.86;35.01;99101.50;5134105;27;20199;-78
2021/06/16 03:07:56;;;;;;;10.98;3.30;;;;;;;28.05;34.96;99105.78;5079480;28;20054;-79
2021/06/16 03:10:22;;;;;;;6.70;3.42;;;;;;;28.26;34.59;99116.13;5080148;28;20043;-79
2021/06/16 03:12:52;;;;;;;16.80;4.28;;;;;;;28.49;34.35;99128.16;5080068;28;20043;-80
2021/06/16 03:15:19;;;;;;;10.95;3.83;;;;;;;28.48;33.92;99104.50;5096567;28;20054;-82
2021/06/16 03:17:46;;;;;;;15.73;3.70;;;;;;;28.71;33.95;99120.88;5099075;28;20104;-80
2021/06/16 03:20:13;;;;;;;10.88;3.60;;;;;;;29.02;33.99;99130.56;5097432;28;20044;-80
2021/06/16 03:22:39;;;;;;;7.70;3.10;;;;;;;29.15;33.85;99125.81;5095895;28;20051;-80
2021/06/16 03:25:05;;;;;;;4.80;3.22;;;;;;;29.22;34.14;99121.81;5081035;28;20042;-80
2021/06/16 03:27:32;;;;;;;9.63;3.25;;;;;;;29.31;33.86;99121.41;5056734;28;20473;-82
2021/06/16 03:29:59;;;;;;;10.63;3.55;;;;;;;29.41;33.59;99113.31;5073224;28;20134;-80
2021/06/16 03:32:26;;;;;;;15.30;3.70;;;;;;;29.37;34.00;99120.41;5042485;28;20047;-81
2021/06/16 03:34:52;;;;;;;5.63;3.22;;;;;;;29.17;33.93;99101.63;5063613;28;20063;-79
2021/06/16 03:37:18;;;;;;;8.63;3.38;;;;;;;29.00;34.53;99090.63;5058816;28;20048;-80
2021/06/16 03:39:45;;;;;;;7.05;3.15;;;;;;;28.64;35.10;99076.19;5059437;28;20051;-79
2021/06/16 03:42:13;;;;;;;7.57;3.50;;;;;;;28.63;35.38;99080.03;5042656;28;20093;-79
2021/06/16 03:44:39;;;;;;;10.57;3.33;;;;;;;28.64;35.61;99067.94;5075283;28;20044;-81
2021/06/16 03:47:05;;;;;;;10.88;3.20;;;;;;;28.68;36.18;99077.38;5058098;28;20176;-80
2021/06/16 03:49:31;;;;;;;8.52;3.10;;;;;;;28.56;35.97;99068.34;5058864;28;20494;-81
2021/06/16 03:51:58;;;;;;;12.55;3.40;;;;;;;28.60;36.74;99119.03;5041781;28;20047;-79
2021/06/16 03:54:27;;;;;;;21.85;3.47;;;;;;;28.30;36.66;99127.47;5074953;28;20039;-80
2021/06/16 03:56:53;;;;;;;16.10;4.45;;;;;;;28.33;37.27;99113.25;5041663;28;20110;-81
2021/06/16 03:59:19;;;;;;;10.48;3.25;;;;;;;28.43;37.41;99104.38;5075028;28;20474;-83
2021/06/16 04:01:45;;;;;;;11.77;3.60;;;;;;;28.60;37.19;99110.78;5058833;28;20044;-88
2021/06/16 04:04:11;;;;;;;6.57;3.20;;;;;;;28.80;36.74;99097.38;5058750;28;20230;-81
2021/06/16 04:06:40;;;;;;;19.63;3.45;;;;;;;28.96;36.08;99100.41;5074688;28;20040;-81
2021/06/16 04:09:06;;;;;;;10.32;3.30;;;;;;;29.03;36.18;99118.47;5076583;28;20050;-81
2021/06/16 04:11:32;;;;;;;13.60;3.20;;;;;;;29.28;35.99;99115.31;5078493;28;20059;-81
2021/06/16 04:13:59;;;;;;;15.98;3.38;;;;;;;29.35;35.93;99101.38;5061287;28;20047;-83
2021/06/16 04:16:25;;;;;;;14.70;3.65;;;;;;;29.66;35.88;99119.25;5066490;28;20040;-83
2021/06/16 04:18:51;;;;;;;16.83;4.32;;;;;;;29.62;35.47;99109.81;5064811;28;20498;-80
2021/06/16 04:21:18;;;;;;;10.13;3.60;;;;;;;29.74;35.22;99113.28;5031324;28;20067;-81
2021/06/16 04:23:44;;;;;;;14.73;3.17;;;;;;;29.76;35.14;99111.13;5065104;28;20039;-83
2021/06/16 04:26:10;;;;;;;11.25;3.95;;;;;;;29.82;35.12;99109.28;5048088;28;20510;-82
2021/06/16 04:28:36;;;;;;;14.05;3.80;;;;;;;29.92;35.31;99105.84;5028752;28;20394;-81
2021/06/16 04:31:02;;;;;;;10.30;3.20;;;;;;;30.15;35.11;99119.38;5062811;28;20070;-88
2021/06/16 04:33:28;;;;;;;17.90;3.28;;;;;;;30.28;34.71;99111.81;5065751;28;20072;-83
2021/06/16 04:35:54;;;;;;;9.85;3.47;;;;;;;30.26;35.03;99116.78;5065874;28;20047;-80
2021/06/16 04:38:20;;;;;;;10.63;3.60;;;;;;;30.34;34.83;99121.84;5061977;28;20495;-78
2021/06/16 04:40:46;;;;;;;15.30;3.60;;;;;;;30.37;34.45;99119.41;5077403;28;20123;-79
2021/06/16 04:43:12;;;;;;;11.45;3.53;;;;;;;30.42;34.48;99116.69;5043956;28;20040;-78
2021/06/16 04:45:38;;;;;;;13.38;3.78;;;;;;;30.44;34.63;99114.53;5060777;28;20482;-77
2021/06/16 04:48:05;;;;;;;7.03;3.35;;;;;;;30.41;34.78;99112.28;5060078;28;20108;-85
2021/06/16 04:50:31;;;;;;;7.72;3.20;;;;;;;30.70;34.62;99118.41;5012522;28;20043;-80
2021/06/16 04:52:57;;;;;;;9.95;3.40;;;;;;;30.91;34.45;99115.88;5095216;28;20048;-79
2021/06/16 04:55:23;;;;;;;16.52;3.63;;;;;;;30.96;33.99;99114.00;5043770;28;20051;-83
2021/06/16 04:57:49;;;;;;;11.27;3.45;;;;;;;31.08;33.94;99122.13;5043497;28;20141;-76
2021/06/16 05:00:17;;;;;;;9.48;3.65;;;;;;;31.25;33.78;99116.44;5076994;28;20510;-77
2021/06/16 05:02:59;;;;;;;8.18;3.17;;;;;;;31.38;33.90;99109.69;5064204;28;20032;-81
2021/06/16 05:05:28;;;;;;;8.48;3.30;;;;;;;31.35;33.66;99094.47;5060294;28;20043;-81
2021/06/16 05:07:54;;;;;;;7.25;3.30;;;;;;;31.26;33.81;99101.56;5060123;28;20075;-78
2021/06/16 05:10:39;;;;;;;10.23;3.25;;;;;;;31.41;33.67;99103.66;5095543;28;20047;-77
2021/06/16 05:13:05;;;;;;;13.25;3.88;;;;;;;31.65;33.46;99109.59;5077156;28;20085;-77
2021/06/16 05:15:31;;;;;;;15.68;3.42;;;;;;;31.69;33.79;99103.28;5043846;28;20063;-76
2021/06/16 05:17:57;;;;;;;10.13;3.53;;;;;;;31.92;33.96;99104.81;5059820;28;20040;-78
2021/06/16 05:20:24;;;;;;;7.95;3.28;;;;;;;31.94;33.59;99087.97;5076450;28;20097;-77
2021/06/16 05:22:50;;;;;;;5.82;2.88;;;;;;;32.04;32.15;99101.81;5059381;28;20036;-75
2021/06/16 05:25:17;;;;;;;9.32;3.20;;;;;;;31.89;32.67;99094.28;5043237;28;20042;-75
2021/06/16 05:27:44;;;;;;;13.98;3.05;;;;;;;32.11;32.07;99091.34;5042087;28;20042;-76
2021/06/16 05:30:10;;;;;;;12.27;4.05;;;;;;;32.09;32.64;99101.03;5026824;28;20040;-76
2021/06/16 05:32:37;;;;;;;7.45;3.28;;;;;;;32.42;32.27;99110.88;5042803;28;20044;-76
2021/06/16 05:35:04;;;;;;;12.90;3.50;;;;;;;32.50;31.58;99099.28;5042824;28;20048;-75
2021/06/16 05:37:31;;;;;;;8.73;2.95;;;;;;;32.49;31.43;99103.13;5059691;28;20460;-75
2021/06/16 05:39:56;;;;;;;19.85;3.20;;;;;;;32.63;31.75;99098.75;5059272;28;20040;-77
2021/06/16 05:42:23;;;;;;;6.15;2.80;;;;;;;33.01;31.15;99102.16;5042861;28;20118;-76
2021/06/16 05:44:48;;;;;;;3.88;2.58;;;;;;;33.19;30.41;99106.34;5059884;28;20570;-76
2021/06/16 05:47:15;;;;;;;15.85;3.65;;;;;;;33.43;29.71;99101.06;5058932;28;20051;-75
2021/06/16 05:49:41;;;;;;;8.63;2.83;;;;;;;33.50;28.96;99098.88;5058962;28;20044;-76
2021/06/16 05:52:07;;;;;;;7.88;2.90;;;;;;;33.36;28.10;99106.03;5026362;28;20462;-76
2021/06/16 05:54:36;;;;;;;14.32;3.20;;;;;;;33.35;28.46;99101.63;5076222;28;20051;-75
2021/06/16 05:57:03;;;;;;;11.15;2.92;;;;;;;33.22;29.27;99094.72;5075797;28;20121;-76
2021/06/16 05:59:29;;;;;;;7.35;2.92;;;;;;;33.53;28.90;99101.09;5026397;28;20036;-76
2021/06/16 06:01:55;;;;;;;11.07;3.00;;;;;;;33.71;28.65;99108.00;5075466;28;20032;-76
2021/06/16 06:04:21;;;;;;;4.50;2.83;;;;;;;33.52;28.35;99115.22;5042049;28;20091;-75
2021/06/16 06:06:47;;;;;;;7.05;2.63;;;;;;;33.41;28.71;99103.28;5075509;28;20048;-75
2021/06/16 06:09:13;;;;;;;8.07;2.55;;;;;;;33.45;28.85;99098.84;5059005;28;20036;-76
2021/06/16 06:11:39;;;;;;;8.73;3.00;;;;;;;33.38;28.96;99101.06;5025562;28;20084;-75
2021/06/16 06:14:05;;;;;;;7.25;3.05;;;;;;;33.29;29.24;99099.97;5058693;28;20135;-75
2021/06/16 06:16:31;;;;;;;8.32;2.83;;;;;;;33.16;29.65;99104.13;5058939;28;20433;-76
2021/06/16 06:18:57;;;;;;;8.00;2.53;;;;;;;33.06;29.41;99102.19;5042064;28;20131;-76
2021/06/16 06:21:24;;;;;;;10.35;2.78;;;;;;;33.16;28.74;99100.53;5058838;28;20138;-76
2021/06/16 06:23:50;;;;;;;12.00;3.08;;;;;;;33.08;29.67;99108.28;5042577;28;20122;-76
2021/06/16 06:26:16;;;;;;;12.63;3.33;;;;;;;33.19;29.79;99083.34;5025928;28;20046;-76
2021/06/16 06:28:43;;;;;;;9.50;3.15;;;;;;;33.35;29.00;99101.63;5041943;28;20052;-76
2021/06/16 06:31:09;;;;;;;4.88;2.83;;;;;;;33.64;29.16;99106.63;5025684;28;20040;-76
2021/06/16 06:33:35;;;;;;;5.05;2.80;;;;;;;34.13;28.70;99098.47;5075284;28;20032;-76
2021/06/16 06:36:01;;;;;;;13.05;2.80;;;;;;;34.30;28.28;99092.53;5041680;28;20036;-76
2021/06/16 06:38:27;;;;;;;31.27;3.55;;;;;;;34.02;27.88;99092.13;5058123;28;20387;-77
2021/06/16 06:40:53;;;;;;;6.90;2.67;;;;;;;33.80;28.39;99089.66;5058248;28;20044;-76
2021/06/16 06:43:20;;;;;;;8.40;3.17;;;;;;;33.69;27.77;99092.72;5042007;28;20048;-76
2021/06/16 06:45:46;;;;;;;6.93;2.75;;;;;;;33.41;28.61;99086.66;5025289;28;20048;-76
2021/06/16 06:48:12;;;;;;;10.57;3.10;;;;;;;33.34;28.71;99097.19;5041321;28;20043;-77
2021/06/16 06:50:38;;;;;;;10.02;3.45;;;;;;;33.25;29.19;99104.38;5041570;28;20055;-76
2021/06/16 06:53:04;;;;;;;8.45;2.92;;;;;;;33.23;29.19;99103.84;5025157;28;20070;-77
2021/06/16 06:55:30;;;;;;;10.73;2.92;;;;;;;33.51;29.25;99111.63;5041908;28;20548;-77
2021/06/16 06:57:57;;;;;;;13.77;3.35;;;;;;;33.54;29.51;99108.28;5025583;28;20048;-76
2021/06/16 07:00:23;;;;;;;13.27;3.20;;;;;;;33.56;29.73;99106.06;5058315;28;20036;-77
2021/06/16 07:02:49;;;;;;;8.38;3.42;;;;;;;33.45;29.58;99098.84;5041721;28;20117;-77
2021/06/16 07:05:16;;;;;;;12.20;3.28;;;;;;;33.52;30.17;99098.59;5041374;28;20071;-77
2021/06/16 07:07:42;;;;;;;7.82;3.55;;;;;;;33.47;30.14;99104.13;5058616;28;20043;-76
2021/06/16 07:10:09;;;;;;;16.70;3.30;;;;;;;33.53;30.43;99097.47;5041842;28;20055;-75
2021/06/16 07:12:36;;;;;;;14.02;3.90;;;;;;;33.82;30.44;99106.03;5058609;28;20510;-76
2021/06/16 07:15:03;;;;;;;11.68;4.10;;;;;;;34.03;30.28;99110.41;5058116;28;20040;-77
2021/06/16 07:17:33;;;;;;;9.73;4.03;;;;;;;34.22;29.75;99112.56;5025794;28;20138;-76
2021/06/16 07:20:00;;;;;;;10.65;3.90;;;;;;;34.14;28.17;99107.59;5058507;28;20126;-76
2021/06/16 07:22:26;;;;;;;10.57;3.22;;;;;;;34.38;27.96;99105.00;5058536;28;20089;-76
2021/06/16 07:24:52;;;;;;;9.02;3.42;;;;;;;34.29;28.07;99096.44;5024858;28;20051;-77
2021/06/16 07:27:18;;;;;;;8.25;3.17;;;;;;;34.59;27.78;99103.00;5074822;28;20402;-77
2021/06/16 07:29:44;;;;;;;9.48;3.70;;;;;;;35.09;28.06;99106.56;5041242;28;20047;-77
2021/06/16 07:32:10;;;;;;;7.35;3.17;;;;;;;35.17;27.05;99090.13;5075077;28;20044;-77
2021/06/16 07:34:37;;;;;;;13.68;2.60;;;;;;;35.33;26.23;99115.00;5057982;28;20048;-75
2021/06/16 07:37:03;;;;;;;12.77;2.40;;;;;;;35.22;26.46;99119.81;5008679;28;20040;-77
2021/06/16 07:39:29;;;;;;;7.55;2.53;;;;;;;35.26;26.08;99109.75;5024872;28;20044;-75
2021/06/16 07:41:55;;;;;;;9.65;2.72;;;;;;;35.25;26.32;99124.78;5092621;28;20086;-76
2021/06/16 07:44:21;;;;;;;9.65;3.13;;;;;;;35.12;26.48;99114.31;5057654;28;20040;-76
2021/06/16 07:46:48;;;;;;;11.30;3.05;;;;;;;34.88;26.61;99098.34;5041384;28;20044;-76
2021/06/16 07:49:14;;;;;;;5.80;2.58;;;;;;;34.54;26.81;99121.34;5057929;28;20505;-76
2021/06/16 07:51:40;;;;;;;7.45;3.13;;;;;;;34.17;27.30;99115.38;5061045;28;20046;-78
2021/06/16 07:54:11;;;;;;;6.40;2.60;;;;;;;33.80;27.53;99141.50;5028601;28;20036;-76
2021/06/16 07:56:41;;;;;;;7.38;2.55;;;;;;;33.72;27.56;99120.72;5062657;28;20051;-76
2021/06/16 07:59:07;;;;;;;11.85;2.60;;;;;;;33.42;28.03;99120.75;5062268;28;20075;-76
2021/06/16 08:01:33;;;;;;;9.93;2.45;;;;;;;33.55;27.81;99123.81;5044889;28;20140;-76
2021/06/16 08:04:00;;;;;;;13.63;2.78;;;;;;;33.51;28.21;99113.53;5041518;28;20095;-76
2021/06/16 08:06:26;;;;;;;13.88;2.80;;;;;;;33.90;28.29;99124.84;5075117;28;20097;-77
2021/06/16 08:08:52;;;;;;;6.80;2.75;;;;;;;33.91;28.56;99120.97;5026624;28;20066;-77
2021/06/16 08:11:20;;;;;;;10.80;2.92;;;;;;;33.95;28.73;99112.91;5075625;28;20502;-76
2021/06/16 08:13:46;;;;;;;12.80;2.72;;;;;;;34.17;28.74;99132.00;5011929;28;20047;-77
2021/06/16 08:16:14;;;;;;;10.43;2.45;;;;;;;34.36;28.82;99124.72;5042251;28;20585;-75
2021/06/16 08:18:40;;;;;;;8.63;3.00;;;;;;;34.82;28.60;99132.00;5076196;28;20053;-76
2021/06/16 08:21:06;;;;;;;13.40;3.00;;;;;;;35.17;28.28;99128.16;5028853;28;20140;-76
2021/06/16 08:23:33;;;;;;;6.85;2.40;;;;;;;35.47;27.38;99132.66;5076390;28;20094;-78
2021/06/16 08:25:59;;;;;;;8.50;2.72;;;;;;;35.01;27.19;99125.50;5043083;28;20040;-77
2021/06/16 08:28:25;;;;;;;9.07;2.63;;;;;;;34.94;27.25;99136.09;5042635;28;20048;-76
2021/06/16 08:30:52;;;;;;;5.43;2.20;;;;;;;34.88;25.38;99117.81;5025276;28;20051;-77
2021/06/16 08:33:18;;;;;;;4.05;1.85;;;;;;;34.69;25.55;99127.91;5057731;28;20418;-76
2021/06/16 08:35:44;;;;;;;4.57;2.30;;;;;;;34.65;25.66;99133.22;5057637;28;20055;-76
2021/06/16 08:38:11;;;;;;;7.10;2.20;;;;;;;34.47;25.59;99136.59;5057807;28;20135;-75
2021/06/16 08:40:37;;;;;;;3.05;1.70;;;;;;;34.47;25.76;99142.97;5057430;28;20498;-76
2021/06/16 08:43:03;;;;;;;7.72;2.03;;;;;;;34.36;25.98;99146.91;5058083;28;20045;-78
2021/06/16 08:45:34;;;;;;;12.65;2.05;;;;;;;34.57;26.30;99142.16;5073871;28;20044;-77
2021/06/16 08:48:00;;;;;;;6.20;1.77;;;;;;;34.52;25.73;99165.19;5041663;28;20067;-76
2021/06/16 08:50:26;;;;;;;9.85;1.70;;;;;;;33.58;25.39;99170.34;5057081;28;20494;-76
2021/06/16 08:52:53;;;;;;;18.17;2.80;;;;;;;33.06;25.66;99156.72;5024222;28;20044;-77
2021/06/16 08:55:19;;;;;;;26.70;3.20;;;;;;;33.00;25.25;99211.28;5024134;28;20051;-77
2021/06/16 08:57:46;;;;;;;16.23;2.10;;;;;;;32.97;25.06;99170.28;5057195;28;20490;-75
2021/06/16 09:00:12;;;;;;;12.98;1.55;;;;;;;32.93;25.46;99160.84;5073619;28;20064;-76
2021/06/16 09:02:41;;;;;;;19.60;2.40;;;;;;;32.57;26.12;99182.88;5057101;28;20526;-74
2021/06/16 09:05:08;;;;;;;10.90;1.75;;;;;;;32.54;26.01;99183.41;5023292;28;20052;-76
2021/06/16 09:07:34;;;;;;;12.60;1.92;;;;;;;32.30;26.23;99171.91;5040107;28;20052;-75
2021/06/16 09:10:11;;;;;;;10.93;1.85;;;;;;;32.08;26.24;99179.53;5024161;28;20189;-76
2021/06/16 09:12:59;;;;;;;11.25;2.00;;;;;;;32.08;26.32;99174.88;5073440;28;20052;-76
2021/06/16 09:15:29;;;;;;;10.32;1.90;;;;;;;31.79;26.57;99181.84;5056925;28;20048;-77
2021/06/16 09:18:03;;;;;;;10.50;1.58;;;;;;;31.69;26.26;99186.19;5056700;28;20044;-77
2021/06/16 09:20:30;;;;;;;19.50;1.90;;;;;;;31.71;26.33;99174.00;5057368;28;20105;-77
2021/06/16 09:23:16;;;;;;;16.38;2.35;;;;;;;31.59;26.42;99177.78;5023608;28;20131;-76
2021/06/16 09:25:43;;;;;;;18.23;2.13;;;;;;;31.47;26.59;99166.09;5040454;28;20048;-76
2021/06/16 09:28:10;;;;;;;20.85;2.22;;;;;;;31.38;26.70;99165.75;5056700;28;20041;-76
2021/06/16 09:30:42;;;;;;;17.60;1.80;;;;;;;31.24;27.24;99156.22;5023127;28;20090;-76
2021/06/16 09:33:15;;;;;;;15.82;1.63;;;;;;;31.04;27.23;99154.09;5039763;28;20079;-76
2021/06/16 09:35:45;;;;;;;11.85;1.63;;;;;;;31.12;26.96;99137.06;5040301;28;20063;-76
2021/06/16 09:38:34;;;;;;;10.27;1.90;;;;;;;30.85;27.61;99142.59;5040871;28;20098;-77
2021/06/16 09:41:00;;;;;;;9.15;1.35;;;;;;;30.88;27.78;99143.97;5058821;28;20514;-77
2021/06/16 09:43:27;;;;;;;16.63;2.38;;;;;;;30.73;28.20;99142.72;5039675;28;20483;-76
2021/06/16 09:46:01;;;;;;;8.43;1.70;;;;;;;30.78;28.26;99135.63;5057268;28;20049;-75
2021/06/16 09:48:41;;;;;;;12.10;2.00;;;;;;;30.89;28.06;99132.69;5008491;28;20041;-75
2021/06/16 09:51:20;;;;;;;8.90;1.80;;;;;;;31.16;28.01;99140.13;5023696;28;20044;-76
2021/06/16 09:53:53;;;;;;;18.35;3.10;;;;;;;31.54;28.02;99129.97;5055994;28;20067;-77
2021/06/16 09:56:19;;;;;;;11.35;2.30;;;;;;;31.78;27.14;99135.94;5040722;28;20131;-75
2021/06/16 09:58:45;;;;;;;7.72;1.40;;;;;;;32.08;27.03;99147.22;5022721;28;20119;-76
2021/06/16 10:01:11;;;;;;;10.32;1.70;;;;;;;32.43;26.59;99145.75;5039228;28;20123;-76
2021/06/16 10:03:38;;;;;;;12.00;1.60;;;;;;;32.61;26.17;99161.88;5038888;28;20056;-77
2021/06/16 10:06:08;;;;;;;13.10;2.53;;;;;;;32.67;26.18;99164.63;5055579;28;20044;-77
2021/06/16 10:08:42;;;;;;;15.57;2.13;;;;;;;32.62;26.45;99182.91;5056622;28;20044;-77
2021/06/16 10:11:10;;;;;;;14.68;1.73;;;;;;;32.31;27.19;99215.09;5039874;28;20138;-76
2021/06/16 10:13:36;;;;;;;10.45;2.35;;;;;;;31.99;25.08;99165.41;5038518;28;20097;-76
2021/06/16 10:16:02;;;;;;;8.80;1.60;;;;;;;31.72;25.41;99165.47;5039166;28;20041;-77
2021/06/16 10:18:29;;;;;;;8.60;1.30;;;;;;;31.38;23.48;99105.00;5022807;28;20467;-76
2021/06/16 10:20:56;;;;;;;8.00;1.38;;;;;;;31.13;23.65;99107.50;5038874;28;20205;-76
2021/06/16 10:23:23;;;;;;;11.45;1.50;;;;;;;31.03;24.03;99113.78;5055516;28;20139;-76
2021/06/16 10:25:49;;;;;;;9.52;1.50;;;;;;;30.88;23.94;99128.28;5055474;28;20047;-77
2021/06/16 10:28:19;;;;;;;10.55;1.33;;;;;;;30.70;24.34;99114.81;5072103;28;20044;-76
2021/06/16 10:30:51;;;;;;;14.05;1.50;;;;;;;30.72;24.45;99085.84;5055226;28;20040;-76
2021/06/16 10:33:37;;;;;;;13.98;1.77;;;;;;;30.82;24.34;99089.84;5023582;28;20139;-76
2021/06/16 10:36:06;;;;;;;7.13;1.60;;;;;;;31.06;24.30;99085.63;5055528;28;20603;-76
2021/06/16 10:38:32;;;;;;;8.90;1.70;;;;;;;31.28;24.94;99093.84;5055268;28;20181;-76
2021/06/16 10:40:59;;;;;;;10.23;1.83;;;;;;;31.48;25.16;99095.94;5022213;28;20052;-77
2021/06/16 10:43:29;;;;;;;10.65;2.33;;;;;;;31.68;25.89;99075.91;5038564;28;20503;-77
2021/06/16 10:45:58;;;;;;;6.90;1.80;;;;;;;31.90;26.39;99086.84;5022425;28;20061;-77
2021/06/16 10:48:45;;;;;;;15.65;2.08;;;;;;;32.17;26.42;99079.22;5005840;28;20048;-76
2021/06/16 10:51:33;;;;;;;18.77;2.47;;;;;;;32.61;26.53;99084.38;5056284;28;20056;-76
2021/06/16 10:54:18;;;;;;;18.00;2.30;;;;;;;32.78;26.32;99083.28;5055087;28;20529;-77
2021/06/16 10:56:45;;;;;;;24.00;2.42;;;;;;;32.71;25.92;99082.72;5055328;28;20094;-76
2021/06/16 10:59:12;;;;;;;15.02;2.30;;;;;;;32.88;25.74;99072.25;5039751;28;20482;-78
2021/06/16 11:01:49;;;;;;;15.35;2.55;;;;;;;33.18;25.27;99076.16;5040161;28;20091;-77
2021/06/16 11:04:28;;;;;;;15.68;2.20;;;;;;;33.58;25.46;99076.13;5057741;28;20061;-77
2021/06/16 11:06:54;;;;;;;12.02;2.40;;;;;;;33.87;25.15;99071.91;5040301;28;20045;-77
2021/06/16 11:09:50;;;;;;;9.73;1.83;;;;;;;33.84;24.91;99062.19;5022922;28;20047;-76
2021/06/16 11:12:17;;;;;;;11.68;1.60;;;;;;;33.74;25.13;99052.00;5038557;28;20113;-76
2021/06/16 11:14:45;;;;;;;6.68;2.15;;;;;;;33.93;24.81;99054.97;5037466;28;20181;-76
2021/06/16 11:17:31;;;;;;;16.35;2.55;;;;;;;33.83;25.54;99044.72;5072036;28;20041;-78
2021/06/16 11:20:04;;;;;;;16.67;2.05;;;;;;;33.51;25.74;99042.34;5054679;28;20048;-77
2021/06/16 11:22:32;;;;;;;14.82;1.95;;;;;;;33.58;25.92;99033.72;5055960;28;20487;-76
2021/06/16 11:25:17;;;;;;;14.38;1.95;;;;;;;33.76;25.57;99032.28;5038241;28;20056;-77
2021/06/16 11:27:55;;;;;;;18.48;2.80;;;;;;;33.77;25.35;99000.66;5076651;28;20047;-77
2021/06/16 11:30:27;;;;;;;;;;;;;;;34.28;25.27;99033.75;5059413;28;20044;-76
2021/06/16 11:33:12;;;;;;;10.45;2.20;;;;;;;35.28;23.97;99022.22;5058967;28;20379;-76
2021/06/16 11:35:39;;;;;;;17.65;2.42;;;;;;;35.57;23.66;99023.34;5075214;28;20136;-77